sensor_id;sensor_type;location;lat;lon;timestamp;pressure;altitude;pressure_sealevel;temperature;humidity
30636;BME280;17400;52.392;9.750;2024-02-23T00:00:25;97707.88;;;10.16;61.57
30636;BME280;17400;52.392;9.750;2024-02-23T00:03:11;97697.06;;;10.11;61.12
30636;BME280;17400;52.392;9.750;2024-02-23T00:05:58;97719.50;;;10.22;61.71
30636;BME280;17400;52.392;9.750;2024-02-23T00:08:45;97736.81;;;10.11;60.81
30636;BME280;17400;52.392;9.750;2024-02-23T00:11:33;97743.56;;;10.08;61.56
30636;BME280;17400;52.392;9.750;2024-02-23T00:14:25;97745.72;;;10.06;62.09
30636;BME280;17400;52.392;9.750;2024-02-23T00:17:11;97768.97;;;10.12;62.96
30636;BME280;17400;52.392;9.750;2024-02-23T00:19:58;97751.41;;;10.10;63.04
30636;BME280;17400;52.392;9.750;2024-02-23T00:22:44;97743.00;;;10.06;62.34
30636;BME280;17400;52.392;9.750;2024-02-23T00:25:31;97769.19;;;9.95;61.60
30636;BME280;17400;52.392;9.750;2024-02-23T00:28:18;97770.28;;;9.99;61.95
30636;BME280;17400;52.392;9.750;2024-02-23T00:31:04;97761.38;;;9.99;62.22
30636;BME280;17400;52.392;9.750;2024-02-23T00:33:51;97771.91;;;10.00;62.86
30636;BME280;17400;52.392;9.750;2024-02-23T00:36:38;97768.94;;;9.97;61.77
30636;BME280;17400;52.392;9.750;2024-02-23T00:39:24;97778.94;;;9.96;62.35
30636;BME280;17400;52.392;9.750;2024-02-23T00:42:11;97775.97;;;10.03;62.84
30636;BME280;17400;52.392;9.750;2024-02-23T00:44:58;97785.72;;;10.04;63.36
30636;BME280;17400;52.392;9.750;2024-02-23T00:47:45;97791.66;;;10.11;64.57
30636;BME280;17400;52.392;9.750;2024-02-23T00:50:32;97787.31;;;10.00;62.94
30636;BME280;17400;52.392;9.750;2024-02-23T00:53:19;97797.03;;;10.01;62.64
30636;BME280;17400;52.392;9.750;2024-02-23T00:56:07;97803.53;;;9.95;61.95
30636;BME280;17400;52.392;9.750;2024-02-23T00:59:01;97788.34;;;9.89;60.39
30636;BME280;17400;52.392;9.750;2024-02-23T01:01:48;97802.69;;;9.94;60.09
30636;BME280;17400;52.392;9.750;2024-02-23T01:04:36;97812.13;;;9.92;61.05
30636;BME280;17400;52.392;9.750;2024-02-23T01:07:22;97818.38;;;9.97;61.53
30636;BME280;17400;52.392;9.750;2024-02-23T01:10:09;97814.59;;;9.98;62.27
30636;BME280;17400;52.392;9.750;2024-02-23T01:12:55;97810.81;;;9.99;62.57
30636;BME280;17400;52.392;9.750;2024-02-23T01:15:42;97829.44;;;9.86;63.43
30636;BME280;17400;52.392;9.750;2024-02-23T01:18:30;97833.41;;;9.73;63.90
30636;BME280;17400;52.392;9.750;2024-02-23T01:21:17;97857.38;;;9.64;64.64
30636;BME280;17400;52.392;9.750;2024-02-23T01:24:05;97862.56;;;9.71;65.73
30636;BME280;17400;52.392;9.750;2024-02-23T01:26:51;97865.53;;;9.69;65.51
30636;BME280;17400;52.392;9.750;2024-02-23T01:29:38;97893.06;;;9.66;65.98
30636;BME280;17400;52.392;9.750;2024-02-23T01:32:25;97892.47;;;9.59;67.22
30636;BME280;17400;52.392;9.750;2024-02-23T01:35:14;97924.88;;;9.59;69.13
30636;BME280;17400;52.392;9.750;2024-02-23T01:38:01;97947.50;;;9.47;71.80
30636;BME280;17400;52.392;9.750;2024-02-23T01:40:48;97954.75;;;9.47;73.90
30636;BME280;17400;52.392;9.750;2024-02-23T01:43:34;97970.13;;;9.41;76.03
30636;BME280;17400;52.392;9.750;2024-02-23T01:46:21;97960.91;;;9.37;81.32
30636;BME280;17400;52.392;9.750;2024-02-23T01:49:09;98000.75;;;9.25;87.02
30636;BME280;17400;52.392;9.750;2024-02-23T01:51:56;98035.16;;;9.12;91.81
30636;BME280;17400;52.392;9.750;2024-02-23T01:54:43;98024.16;;;8.92;93.89
30636;BME280;17400;52.392;9.750;2024-02-23T01:57:30;98041.78;;;8.77;97.99
30636;BME280;17400;52.392;9.750;2024-02-23T02:00:34;98063.03;;;8.74;100.00
30636;BME280;17400;52.392;9.750;2024-02-23T02:03:21;98071.03;;;8.86;100.00
30636;BME280;17400;52.392;9.750;2024-02-23T02:06:09;98090.03;;;8.74;100.00
30636;BME280;17400;52.392;9.750;2024-02-23T02:08:56;98107.03;;;8.57;100.00
30636;BME280;17400;52.392;9.750;2024-02-23T02:11:46;98135.41;;;8.43;100.00
30636;BME280;17400;52.392;9.750;2024-02-23T02:14:33;98150.13;;;8.52;100.00
30636;BME280;17400;52.392;9.750;2024-02-23T02:17:19;98143.97;;;8.40;100.00
30636;BME280;17400;52.392;9.750;2024-02-23T02:20:07;98157.28;;;8.29;100.00
30636;BME280;17400;52.392;9.750;2024-02-23T02:22:57;98158.38;;;8.28;100.00
30636;BME280;17400;52.392;9.750;2024-02-23T02:25:44;98165.63;;;8.28;100.00
30636;BME280;17400;52.392;9.750;2024-02-23T02:28:31;98165.13;;;8.14;100.00
30636;BME280;17400;52.392;9.750;2024-02-23T02:31:17;98169.38;;;8.10;100.00
30636;BME280;17400;52.392;9.750;2024-02-23T02:34:04;98181.16;;;8.21;100.00
30636;BME280;17400;52.392;9.750;2024-02-23T02:36:50;98185.78;;;8.25;100.00
30636;BME280;17400;52.392;9.750;2024-02-23T02:39:36;98181.06;;;8.15;100.00
30636;BME280;17400;52.392;9.750;2024-02-23T02:42:24;98197.13;;;8.10;100.00
30636;BME280;17400;52.392;9.750;2024-02-23T02:45:11;98195.78;;;7.96;100.00
30636;BME280;17400;52.392;9.750;2024-02-23T02:47:57;98210.66;;;7.98;100.00
30636;BME280;17400;52.392;9.750;2024-02-23T02:50:43;98212.16;;;8.06;100.00
30636;BME280;17400;52.392;9.750;2024-02-23T02:53:30;98243.91;;;8.04;100.00
30636;BME280;17400;52.392;9.750;2024-02-23T02:56:16;98229.38;;;8.05;100.00
30636;BME280;17400;52.392;9.750;2024-02-23T02:59:03;98230.91;;;8.01;100.00
30636;BME280;17400;52.392;9.750;2024-02-23T03:01:50;98234.34;;;8.13;100.00
30636;BME280;17400;52.392;9.750;2024-02-23T03:04:36;98211.47;;;7.99;100.00
30636;BME280;17400;52.392;9.750;2024-02-23T03:07:22;98241.28;;;7.80;100.00
30636;BME280;17400;52.392;9.750;2024-02-23T03:10:09;98242.19;;;7.98;100.00
30636;BME280;17400;52.392;9.750;2024-02-23T03:12:55;98237.09;;;7.84;99.44
30636;BME280;17400;52.392;9.750;2024-02-23T03:15:42;98241.41;;;7.86;97.90
30636;BME280;17400;52.392;9.750;2024-02-23T03:18:29;98258.16;;;7.88;98.59
30636;BME280;17400;52.392;9.750;2024-02-23T03:21:15;98273.53;;;7.75;95.60
30636;BME280;17400;52.392;9.750;2024-02-23T03:24:02;98280.66;;;7.81;96.60
30636;BME280;17400;52.392;9.750;2024-02-23T03:26:48;98287.09;;;7.80;94.58
30636;BME280;17400;52.392;9.750;2024-02-23T03:29:35;98288.84;;;7.87;96.17
30636;BME280;17400;52.392;9.750;2024-02-23T03:32:23;98298.66;;;7.93;95.25
30636;BME280;17400;52.392;9.750;2024-02-23T03:35:09;98288.34;;;7.90;94.33
30636;BME280;17400;52.392;9.750;2024-02-23T03:37:55;98295.25;;;7.86;94.90
30636;BME280;17400;52.392;9.750;2024-02-23T03:40:41;98297.78;;;7.75;95.92
30636;BME280;17400;52.392;9.750;2024-02-23T03:43:28;98299.16;;;7.78;95.68
30636;BME280;17400;52.392;9.750;2024-02-23T03:46:18;98307.22;;;7.78;96.00
30636;BME280;17400;52.392;9.750;2024-02-23T03:49:06;98326.13;;;7.66;95.27
30636;BME280;17400;52.392;9.750;2024-02-23T03:51:52;98324.38;;;7.60;94.61
30636;BME280;17400;52.392;9.750;2024-02-23T03:54:38;98327.28;;;7.70;94.93
30636;BME280;17400;52.392;9.750;2024-02-23T03:57:25;98328.09;;;7.71;93.15
30636;BME280;17400;52.392;9.750;2024-02-23T04:00:12;98343.31;;;7.77;92.40
30636;BME280;17400;52.392;9.750;2024-02-23T04:02:59;98334.28;;;7.71;91.80
30636;BME280;17400;52.392;9.750;2024-02-23T04:05:46;98346.47;;;7.74;92.53
30636;BME280;17400;52.392;9.750;2024-02-23T04:08:32;98360.06;;;7.67;91.40
30636;BME280;17400;52.392;9.750;2024-02-23T04:11:19;98352.59;;;7.45;90.77
30636;BME280;17400;52.392;9.750;2024-02-23T04:14:05;98349.44;;;7.48;91.11
30636;BME280;17400;52.392;9.750;2024-02-23T04:16:51;98358.78;;;7.46;88.83
30636;BME280;17400;52.392;9.750;2024-02-23T04:19:38;98369.44;;;7.53;88.44
30636;BME280;17400;52.392;9.750;2024-02-23T04:22:25;98360.78;;;7.50;88.75
30636;BME280;17400;52.392;9.750;2024-02-23T04:25:12;98373.78;;;7.54;87.67
30636;BME280;17400;52.392;9.750;2024-02-23T04:27:58;98382.56;;;7.49;86.22
30636;BME280;17400;52.392;9.750;2024-02-23T04:30:44;98383.97;;;7.52;87.67
30636;BME280;17400;52.392;9.750;2024-02-23T04:33:31;98393.22;;;7.56;87.07
30636;BME280;17400;52.392;9.750;2024-02-23T04:36:19;98379.41;;;7.64;86.02
30636;BME280;17400;52.392;9.750;2024-02-23T04:39:07;98392.75;;;7.59;86.34
30636;BME280;17400;52.392;9.750;2024-02-23T04:41:53;98398.94;;;7.59;84.86
30636;BME280;17400;52.392;9.750;2024-02-23T04:44:41;98397.88;;;7.60;85.05
30636;BME280;17400;52.392;9.750;2024-02-23T04:47:27;98391.69;;;7.60;83.84
30636;BME280;17400;52.392;9.750;2024-02-23T04:50:14;98402.81;;;7.63;84.12
30636;BME280;17400;52.392;9.750;2024-02-23T04:53:03;98415.81;;;7.78;84.10
30636;BME280;17400;52.392;9.750;2024-02-23T04:55:51;98420.72;;;7.81;82.71
30636;BME280;17400;52.392;9.750;2024-02-23T04:58:37;98417.56;;;7.73;81.68
30636;BME280;17400;52.392;9.750;2024-02-23T05:01:24;98425.28;;;7.69;83.02
30636;BME280;17400;52.392;9.750;2024-02-23T05:04:10;98435.47;;;7.67;83.53
30636;BME280;17400;52.392;9.750;2024-02-23T05:06:56;98439.78;;;7.56;83.00
30636;BME280;17400;52.392;9.750;2024-02-23T05:09:42;98447.41;;;7.71;84.09
30636;BME280;17400;52.392;9.750;2024-02-23T05:12:30;98448.00;;;7.61;83.56
30636;BME280;17400;52.392;9.750;2024-02-23T05:15:17;98440.41;;;7.70;81.77
30636;BME280;17400;52.392;9.750;2024-02-23T05:18:04;98457.84;;;7.67;80.52
30636;BME280;17400;52.392;9.750;2024-02-23T05:20:51;98455.38;;;7.66;81.08
30636;BME280;17400;52.392;9.750;2024-02-23T05:23:39;98455.97;;;7.92;79.64
30636;BME280;17400;52.392;9.750;2024-02-23T05:26:25;98463.56;;;7.95;75.61
30636;BME280;17400;52.392;9.750;2024-02-23T05:29:12;98463.78;;;8.05;77.39
30636;BME280;17400;52.392;9.750;2024-02-23T05:32:03;98470.59;;;7.96;74.13
30636;BME280;17400;52.392;9.750;2024-02-23T05:34:50;98485.22;;;8.00;74.63
30636;BME280;17400;52.392;9.750;2024-02-23T05:37:38;98483.03;;;7.97;74.71
30636;BME280;17400;52.392;9.750;2024-02-23T05:40:24;98491.47;;;7.89;72.92
30636;BME280;17400;52.392;9.750;2024-02-23T05:43:11;98493.06;;;7.90;72.97
30636;BME280;17400;52.392;9.750;2024-02-23T05:46:01;98493.91;;;7.90;74.01
30636;BME280;17400;52.392;9.750;2024-02-23T05:48:48;98496.38;;;7.80;72.72
30636;BME280;17400;52.392;9.750;2024-02-23T05:51:34;98499.78;;;7.75;72.60
30636;BME280;17400;52.392;9.750;2024-02-23T05:54:20;98498.25;;;7.79;72.67
30636;BME280;17400;52.392;9.750;2024-02-23T05:57:06;98499.16;;;7.73;71.25
30636;BME280;17400;52.392;9.750;2024-02-23T05:59:53;98497.16;;;7.68;73.67
30636;BME280;17400;52.392;9.750;2024-02-23T06:02:41;98508.78;;;7.69;72.67
30636;BME280;17400;52.392;9.750;2024-02-23T06:05:28;98498.47;;;7.66;72.28
30636;BME280;17400;52.392;9.750;2024-02-23T06:08:14;98504.91;;;7.65;72.57
30636;BME280;17400;52.392;9.750;2024-02-23T06:11:03;98510.28;;;7.65;73.23
30636;BME280;17400;52.392;9.750;2024-02-23T06:13:49;98514.16;;;7.69;73.43
30636;BME280;17400;52.392;9.750;2024-02-23T06:16:36;98508.53;;;7.59;73.16
30636;BME280;17400;52.392;9.750;2024-02-23T06:19:24;98520.34;;;7.70;74.84
30636;BME280;17400;52.392;9.750;2024-02-23T06:22:10;98522.47;;;7.67;75.38
30636;BME280;17400;52.392;9.750;2024-02-23T06:24:57;98533.25;;;7.67;74.31
30636;BME280;17400;52.392;9.750;2024-02-23T06:27:44;98527.75;;;7.74;75.35
30636;BME280;17400;52.392;9.750;2024-02-23T06:30:30;98534.53;;;7.65;74.06
30636;BME280;17400;52.392;9.750;2024-02-23T06:33:17;98544.03;;;7.67;75.17
30636;BME280;17400;52.392;9.750;2024-02-23T06:36:06;98545.31;;;7.65;74.90
30636;BME280;17400;52.392;9.750;2024-02-23T06:38:52;98553.47;;;7.58;76.15
30636;BME280;17400;52.392;9.750;2024-02-23T06:41:39;98553.44;;;7.46;77.06
30636;BME280;17400;52.392;9.750;2024-02-23T06:44:25;98560.94;;;7.44;78.16
30636;BME280;17400;52.392;9.750;2024-02-23T06:47:11;98560.47;;;7.47;77.42
30636;BME280;17400;52.392;9.750;2024-02-23T06:49:58;98569.97;;;7.62;77.68
30636;BME280;17400;52.392;9.750;2024-02-23T06:52:46;98572.22;;;7.65;76.51
30636;BME280;17400;52.392;9.750;2024-02-23T06:55:34;98585.34;;;7.73;75.74
30636;BME280;17400;52.392;9.750;2024-02-23T06:58:21;98588.81;;;7.62;74.41
30636;BME280;17400;52.392;9.750;2024-02-23T07:01:07;98589.56;;;7.69;74.58
30636;BME280;17400;52.392;9.750;2024-02-23T07:03:57;98594.94;;;7.69;74.80
30636;BME280;17400;52.392;9.750;2024-02-23T07:06:44;98599.50;;;7.68;74.26
30636;BME280;17400;52.392;9.750;2024-02-23T07:09:34;98600.72;;;7.73;73.79
30636;BME280;17400;52.392;9.750;2024-02-23T07:12:21;98607.59;;;7.80;73.84
30636;BME280;17400;52.392;9.750;2024-02-23T07:15:07;98605.34;;;7.65;72.34
30636;BME280;17400;52.392;9.750;2024-02-23T07:17:54;98615.22;;;7.72;73.61
30636;BME280;17400;52.392;9.750;2024-02-23T07:20:40;98619.31;;;7.74;73.71
30636;BME280;17400;52.392;9.750;2024-02-23T07:23:27;98620.03;;;7.81;73.37
30636;BME280;17400;52.392;9.750;2024-02-23T07:26:15;98625.53;;;7.75;71.26
30636;BME280;17400;52.392;9.750;2024-02-23T07:29:02;98623.47;;;7.89;72.51
30636;BME280;17400;52.392;9.750;2024-02-23T07:31:49;98639.97;;;7.92;71.32
30636;BME280;17400;52.392;9.750;2024-02-23T07:34:35;98628.84;;;7.89;70.04
30636;BME280;17400;52.392;9.750;2024-02-23T07:37:21;98639.34;;;7.78;70.07
30636;BME280;17400;52.392;9.750;2024-02-23T07:40:08;98641.09;;;7.73;70.37
30636;BME280;17400;52.392;9.750;2024-02-23T07:42:56;98638.88;;;7.81;70.99
30636;BME280;17400;52.392;9.750;2024-02-23T07:45:42;98635.97;;;7.83;69.38
30636;BME280;17400;52.392;9.750;2024-02-23T07:48:29;98642.75;;;7.86;69.71
30636;BME280;17400;52.392;9.750;2024-02-23T07:51:15;98645.16;;;7.94;69.33
30636;BME280;17400;52.392;9.750;2024-02-23T07:54:02;98653.66;;;7.91;68.16
30636;BME280;17400;52.392;9.750;2024-02-23T07:56:49;98645.59;;;7.91;68.43
30636;BME280;17400;52.392;9.750;2024-02-23T07:59:36;98651.94;;;7.96;69.46
30636;BME280;17400;52.392;9.750;2024-02-23T08:02:23;98662.59;;;7.91;67.90
30636;BME280;17400;52.392;9.750;2024-02-23T08:05:09;98671.88;;;8.07;67.72
30636;BME280;17400;52.392;9.750;2024-02-23T08:07:56;98679.41;;;8.17;67.74
30636;BME280;17400;52.392;9.750;2024-02-23T08:10:44;98686.78;;;8.10;67.98
30636;BME280;17400;52.392;9.750;2024-02-23T08:13:30;98694.63;;;8.11;68.03
30636;BME280;17400;52.392;9.750;2024-02-23T08:16:20;98695.91;;;8.09;68.43
30636;BME280;17400;52.392;9.750;2024-02-23T08:19:07;98699.13;;;7.99;68.47
30636;BME280;17400;52.392;9.750;2024-02-23T08:21:53;98697.66;;;8.03;69.22
30636;BME280;17400;52.392;9.750;2024-02-23T08:24:39;98712.31;;;8.07;68.11
30636;BME280;17400;52.392;9.750;2024-02-23T08:27:27;98713.16;;;8.20;66.68
30636;BME280;17400;52.392;9.750;2024-02-23T08:30:14;98715.84;;;8.20;66.64
30636;BME280;17400;52.392;9.750;2024-02-23T08:33:02;98707.06;;;8.12;66.77
30636;BME280;17400;52.392;9.750;2024-02-23T08:35:48;98707.81;;;8.43;67.19
30636;BME280;17400;52.392;9.750;2024-02-23T08:38:34;98710.91;;;8.59;64.26
30636;BME280;17400;52.392;9.750;2024-02-23T08:41:21;98698.84;;;8.73;62.88
30636;BME280;17400;52.392;9.750;2024-02-23T08:44:07;98699.16;;;8.89;62.81
30636;BME280;17400;52.392;9.750;2024-02-23T08:46:55;98693.59;;;9.31;60.50
30636;BME280;17400;52.392;9.750;2024-02-23T08:49:42;98691.16;;;9.17;58.40
30636;BME280;17400;52.392;9.750;2024-02-23T08:52:29;98698.69;;;9.15;58.51
30636;BME280;17400;52.392;9.750;2024-02-23T08:55:15;98709.03;;;9.07;58.61
30636;BME280;17400;52.392;9.750;2024-02-23T08:58:03;98710.31;;;8.80;60.01
30636;BME280;17400;52.392;9.750;2024-02-23T09:00:50;98711.13;;;8.69;60.03
30636;BME280;17400;52.392;9.750;2024-02-23T09:03:36;98706.94;;;8.85;59.75
30636;BME280;17400;52.392;9.750;2024-02-23T09:06:25;98701.53;;;8.85;60.03
30636;BME280;17400;52.392;9.750;2024-02-23T09:09:11;98700.81;;;9.02;60.50
30636;BME280;17400;52.392;9.750;2024-02-23T09:11:58;98701.97;;;9.17;59.55
30636;BME280;17400;52.392;9.750;2024-02-23T09:14:44;98708.66;;;9.03;58.89
30636;BME280;17400;52.392;9.750;2024-02-23T09:17:31;98714.91;;;8.80;59.38
30636;BME280;17400;52.392;9.750;2024-02-23T09:20:18;98726.25;;;8.70;60.15
30636;BME280;17400;52.392;9.750;2024-02-23T09:23:06;98714.53;;;8.76;58.92
30636;BME280;17400;52.392;9.750;2024-02-23T09:25:52;98721.47;;;8.96;59.50
30636;BME280;17400;52.392;9.750;2024-02-23T09:28:39;98726.97;;;9.13;58.88
30636;BME280;17400;52.392;9.750;2024-02-23T09:31:26;98721.19;;;9.33;57.06
30636;BME280;17400;52.392;9.750;2024-02-23T09:34:13;98735.41;;;9.05;57.38
30636;BME280;17400;52.392;9.750;2024-02-23T09:37:00;98729.28;;;9.33;57.60
30636;BME280;17400;52.392;9.750;2024-02-23T09:39:48;98732.00;;;9.21;57.62
30636;BME280;17400;52.392;9.750;2024-02-23T09:42:35;98734.47;;;9.23;56.95
30636;BME280;17400;52.392;9.750;2024-02-23T09:45:24;98737.91;;;9.06;56.89
30636;BME280;17400;52.392;9.750;2024-02-23T09:48:10;98744.53;;;9.27;57.42
30636;BME280;17400;52.392;9.750;2024-02-23T09:50:59;98748.44;;;9.72;55.81
30636;BME280;17400;52.392;9.750;2024-02-23T09:53:46;98759.47;;;10.11;55.78
30636;BME280;17400;52.392;9.750;2024-02-23T09:56:37;98760.53;;;10.39;54.31
30636;BME280;17400;52.392;9.750;2024-02-23T09:59:24;98756.34;;;10.48;54.12
30636;BME280;17400;52.392;9.750;2024-02-23T10:02:16;98763.41;;;10.21;53.82
30636;BME280;17400;52.392;9.750;2024-02-23T10:05:03;98759.97;;;10.54;54.64
30636;BME280;17400;52.392;9.750;2024-02-23T10:07:50;98748.75;;;10.45;52.95
30636;BME280;17400;52.392;9.750;2024-02-23T10:10:39;98757.75;;;10.51;52.91
30636;BME280;17400;52.392;9.750;2024-02-23T10:13:30;98757.84;;;10.27;52.76
30636;BME280;17400;52.392;9.750;2024-02-23T10:16:17;98746.34;;;10.49;53.50
30636;BME280;17400;52.392;9.750;2024-02-23T10:19:05;98757.38;;;10.30;53.39
30636;BME280;17400;52.392;9.750;2024-02-23T10:21:52;98757.84;;;10.56;53.71
30636;BME280;17400;52.392;9.750;2024-02-23T10:24:38;98763.84;;;10.29;53.38
30636;BME280;17400;52.392;9.750;2024-02-23T10:27:24;98753.84;;;10.59;53.71
30636;BME280;17400;52.392;9.750;2024-02-23T10:30:13;98745.13;;;10.74;52.53
30636;BME280;17400;52.392;9.750;2024-02-23T10:32:59;98756.44;;;10.54;52.30
30636;BME280;17400;52.392;9.750;2024-02-23T10:35:46;98767.25;;;10.37;52.86
30636;BME280;17400;52.392;9.750;2024-02-23T10:38:35;98764.41;;;10.31;53.28
30636;BME280;17400;52.392;9.750;2024-02-23T10:41:26;98749.25;;;10.30;52.73
30636;BME280;17400;52.392;9.750;2024-02-23T10:44:15;98748.25;;;10.20;53.18
30636;BME280;17400;52.392;9.750;2024-02-23T10:47:04;98760.19;;;10.07;53.56
30636;BME280;17400;52.392;9.750;2024-02-23T10:49:51;98760.22;;;10.24;53.70
30636;BME280;17400;52.392;9.750;2024-02-23T10:52:38;98757.81;;;10.10;53.95
30636;BME280;17400;52.392;9.750;2024-02-23T10:55:26;98751.75;;;10.03;53.84
30636;BME280;17400;52.392;9.750;2024-02-23T10:58:13;98744.50;;;9.92;53.48
30636;BME280;17400;52.392;9.750;2024-02-23T11:01:02;98748.19;;;9.86;53.71
30636;BME280;17400;52.392;9.750;2024-02-23T11:03:51;98745.13;;;9.82;53.27
30636;BME280;17400;52.392;9.750;2024-02-23T11:06:38;98744.69;;;10.02;53.13
30636;BME280;17400;52.392;9.750;2024-02-23T11:09:25;98743.84;;;9.84;53.15
30636;BME280;17400;52.392;9.750;2024-02-23T11:12:22;98750.34;;;10.00;53.97
30636;BME280;17400;52.392;9.750;2024-02-23T11:15:26;98753.00;;;9.83;53.45
30636;BME280;17400;52.392;9.750;2024-02-23T11:18:22;98736.09;;;9.76;53.58
30636;BME280;17400;52.392;9.750;2024-02-23T11:21:10;98736.25;;;9.58;53.45
30636;BME280;17400;52.392;9.750;2024-02-23T11:24:02;98740.53;;;9.82;54.18
30636;BME280;17400;52.392;9.750;2024-02-23T11:26:49;98732.59;;;10.05;53.60
30636;BME280;17400;52.392;9.750;2024-02-23T11:29:35;98733.28;;;10.00;52.63
30636;BME280;17400;52.392;9.750;2024-02-23T11:32:36;98730.53;;;9.95;52.79
30636;BME280;17400;52.392;9.750;2024-02-23T11:35:25;98732.78;;;10.15;52.96
30636;BME280;17400;52.392;9.750;2024-02-23T11:38:13;98734.25;;;10.23;52.85
30636;BME280;17400;52.392;9.750;2024-02-23T11:40:59;98718.00;;;10.06;52.90
30636;BME280;17400;52.392;9.750;2024-02-23T11:43:47;98731.72;;;9.87;52.93
30636;BME280;17400;52.392;9.750;2024-02-23T11:46:33;98727.81;;;9.95;53.12
30636;BME280;17400;52.392;9.750;2024-02-23T11:49:19;98727.41;;;10.03;53.41
30636;BME280;17400;52.392;9.750;2024-02-23T11:52:06;98727.94;;;10.17;53.24
30636;BME280;17400;52.392;9.750;2024-02-23T11:54:53;98718.47;;;10.03;52.44
30636;BME280;17400;52.392;9.750;2024-02-23T11:57:41;98718.41;;;10.14;52.69
30636;BME280;17400;52.392;9.750;2024-02-23T12:00:32;98732.69;;;10.10;52.04
30636;BME280;17400;52.392;9.750;2024-02-23T12:03:20;98729.63;;;10.06;52.08
30636;BME280;17400;52.392;9.750;2024-02-23T12:06:07;98720.50;;;10.24;52.60
30636;BME280;17400;52.392;9.750;2024-02-23T12:08:55;98732.97;;;10.25;51.78
30636;BME280;17400;52.392;9.750;2024-02-23T12:11:42;98723.25;;;10.41;52.40
30636;BME280;17400;52.392;9.750;2024-02-23T12:14:29;98721.63;;;10.74;51.76
30636;BME280;17400;52.392;9.750;2024-02-23T12:17:15;98723.72;;;10.89;50.80
30636;BME280;17400;52.392;9.750;2024-02-23T12:20:02;98724.47;;;11.24;50.76
30636;BME280;17400;52.392;9.750;2024-02-23T12:22:49;98725.69;;;11.33;49.26
30636;BME280;17400;52.392;9.750;2024-02-23T12:25:35;98736.22;;;11.52;48.94
30636;BME280;17400;52.392;9.750;2024-02-23T12:28:24;98722.03;;;11.44;48.48
30636;BME280;17400;52.392;9.750;2024-02-23T12:31:11;98732.13;;;11.71;48.59
30636;BME280;17400;52.392;9.750;2024-02-23T12:33:57;98726.63;;;11.88;48.23
30636;BME280;17400;52.392;9.750;2024-02-23T12:36:46;98731.94;;;12.05;47.51
30636;BME280;17400;52.392;9.750;2024-02-23T12:39:32;98734.34;;;12.24;47.15
30636;BME280;17400;52.392;9.750;2024-02-23T12:42:18;98729.38;;;12.48;46.80
30636;BME280;17400;52.392;9.750;2024-02-23T12:45:06;98740.47;;;12.41;46.80
30636;BME280;17400;52.392;9.750;2024-02-23T12:47:53;98734.16;;;12.68;46.30
30636;BME280;17400;52.392;9.750;2024-02-23T12:50:41;98730.06;;;13.03;45.52
30636;BME280;17400;52.392;9.750;2024-02-23T12:53:33;98744.81;;;13.12;45.06
30636;BME280;17400;52.392;9.750;2024-02-23T12:56:21;98737.25;;;13.25;44.86
30636;BME280;17400;52.392;9.750;2024-02-23T12:59:07;98759.97;;;13.08;44.80
30636;BME280;17400;52.392;9.750;2024-02-23T13:01:55;98753.38;;;12.94;44.68
30636;BME280;17400;52.392;9.750;2024-02-23T13:04:42;98757.25;;;12.71;45.23
30636;BME280;17400;52.392;9.750;2024-02-23T13:07:35;98753.88;;;12.91;45.17
30636;BME280;17400;52.392;9.750;2024-02-23T13:10:23;98763.94;;;12.58;44.63
30636;BME280;17400;52.392;9.750;2024-02-23T13:13:10;98746.00;;;12.24;45.29
30636;BME280;17400;52.392;9.750;2024-02-23T13:15:57;98753.66;;;12.32;45.84
30636;BME280;17400;52.392;9.750;2024-02-23T13:18:45;98757.31;;;12.16;46.04
30636;BME280;17400;52.392;9.750;2024-02-23T13:21:32;98758.91;;;12.12;46.52
30636;BME280;17400;52.392;9.750;2024-02-23T13:24:18;98759.97;;;11.89;45.58
30636;BME280;17400;52.392;9.750;2024-02-23T13:27:05;98764.81;;;11.87;46.42
30636;BME280;17400;52.392;9.750;2024-02-23T13:29:52;98757.97;;;11.79;46.14
30636;BME280;17400;52.392;9.750;2024-02-23T13:32:38;98764.75;;;11.59;46.61
30636;BME280;17400;52.392;9.750;2024-02-23T13:35:26;98770.66;;;11.56;47.01
30636;BME280;17400;52.392;9.750;2024-02-23T13:38:13;98760.19;;;11.21;47.23
30636;BME280;17400;52.392;9.750;2024-02-23T13:41:00;98765.47;;;11.10;47.92
30636;BME280;17400;52.392;9.750;2024-02-23T13:43:46;98773.06;;;11.13;48.75
30636;BME280;17400;52.392;9.750;2024-02-23T13:46:35;98773.31;;;11.12;48.74
30636;BME280;17400;52.392;9.750;2024-02-23T13:49:23;98768.59;;;11.02;48.71
30636;BME280;17400;52.392;9.750;2024-02-23T13:52:12;98778.91;;;11.05;48.74
30636;BME280;17400;52.392;9.750;2024-02-23T13:55:00;98779.97;;;11.04;49.12
30636;BME280;17400;52.392;9.750;2024-02-23T13:57:46;98775.78;;;10.96;49.72
30636;BME280;17400;52.392;9.750;2024-02-23T14:00:33;98784.00;;;10.84;48.77
30636;BME280;17400;52.392;9.750;2024-02-23T14:03:20;98782.47;;;10.72;49.12
30636;BME280;17400;52.392;9.750;2024-02-23T14:06:08;98778.28;;;10.64;49.14
30636;BME280;17400;52.392;9.750;2024-02-23T14:08:56;98785.41;;;10.53;49.44
30636;BME280;17400;52.392;9.750;2024-02-23T14:11:42;98789.91;;;10.64;50.09
30636;BME280;17400;52.392;9.750;2024-02-23T14:14:30;98787.88;;;10.72;49.93
30636;BME280;17400;52.392;9.750;2024-02-23T14:17:16;98782.22;;;10.73;50.73
30636;BME280;17400;52.392;9.750;2024-02-23T14:20:03;98779.91;;;10.65;51.04
30636;BME280;17400;52.392;9.750;2024-02-23T14:22:50;98787.53;;;10.68;50.71
30636;BME280;17400;52.392;9.750;2024-02-23T14:25:39;98796.00;;;10.72;50.92
30636;BME280;17400;52.392;9.750;2024-02-23T14:28:25;98787.63;;;10.73;51.07
30636;BME280;17400;52.392;9.750;2024-02-23T14:31:11;98789.09;;;10.81;51.23
30636;BME280;17400;52.392;9.750;2024-02-23T14:33:58;98783.44;;;10.82;51.18
30636;BME280;17400;52.392;9.750;2024-02-23T14:36:44;98787.84;;;10.89;51.00
30636;BME280;17400;52.392;9.750;2024-02-23T14:39:30;98790.41;;;10.95;51.46
30636;BME280;17400;52.392;9.750;2024-02-23T14:42:18;98787.72;;;10.95;51.22
30636;BME280;17400;52.392;9.750;2024-02-23T14:45:06;98789.91;;;10.98;50.85
30636;BME280;17400;52.392;9.750;2024-02-23T14:47:52;98798.94;;;10.87;50.68
30636;BME280;17400;52.392;9.750;2024-02-23T14:50:39;98791.72;;;10.76;51.07
30636;BME280;17400;52.392;9.750;2024-02-23T14:53:25;98795.00;;;10.78;51.60